EZY879G EGGD-EGPF
Flight info
| Callsign | EZY879G |
|---|---|
| Flight time | 0h 59m |
| Altitude | 26000 |
| Route | BCN P69 DIZIM DCT KISWO/N0416F270 DCT AVTIC DCT ANJAK/N0423F280 N38 NOKIN UP16 RIBEL DCT ASLIB |
| Aircraft | A320/M-SDE3FGHIRWY/LB1 |
Departure
| Time | 2026-04-30 20:11 |
|---|---|
| Airport | Bristol Airport (EGGD) |
Arrival
| Time | 2026-04-30 21:11 |
|---|---|
| Airport | Glasgow Airport (EGPF) |
| Time | Latitude | Longitude | Altitude | Speed | Heading |
|---|---|---|---|---|---|
| 2026-04-30 19:35 | 51.38567 | -2.70914 | 612 ft | 0 kts | 266° |
| 2026-04-30 19:56 | 51.38567 | -2.70910 | 612 ft | 3 kts | 266° |
| 2026-04-30 19:56 | 51.38568 | -2.70876 | 625 ft | 4 kts | 261° |
| 2026-04-30 19:56 | 51.38578 | -2.70844 | 613 ft | 4 kts | 199° |
| 2026-04-30 19:56 | 51.38600 | -2.70841 | 622 ft | 2 kts | 176° |
| 2026-04-30 19:57 | 51.38602 | -2.70841 | 612 ft | 1 kts | 176° |
| 2026-04-30 20:02 | 51.38593 | -2.70840 | 621 ft | 5 kts | 176° |
| 2026-04-30 20:03 | 51.38474 | -2.70849 | 620 ft | 6 kts | 231° |
| 2026-04-30 20:03 | 51.38468 | -2.70890 | 614 ft | 3 kts | 263° |
| 2026-04-30 20:03 | 51.38468 | -2.70897 | 614 ft | 0 kts | 264° |
| 2026-04-30 20:04 | 51.38465 | -2.70955 | 621 ft | 11 kts | 266° |
| 2026-04-30 20:05 | 51.38456 | -2.71180 | 623 ft | 9 kts | 266° |
| 2026-04-30 20:05 | 51.38452 | -2.71279 | 622 ft | 9 kts | 266° |
| 2026-04-30 20:05 | 51.38435 | -2.71765 | 609 ft | 27 kts | 266° |
| 2026-04-30 20:06 | 51.38433 | -2.72061 | 605 ft | 27 kts | 266° |
| 2026-04-30 20:06 | 51.38420 | -2.72360 | 610 ft | 26 kts | 266° |
| 2026-04-30 20:06 | 51.38408 | -2.72646 | 613 ft | 26 kts | 266° |
| 2026-04-30 20:06 | 51.38398 | -2.72912 | 605 ft | 15 kts | 266° |
| 2026-04-30 20:07 | 51.38394 | -2.72997 | 604 ft | 0 kts | 266° |
| 2026-04-30 20:07 | 51.38394 | -2.73000 | 604 ft | 2 kts | 266° |
| 2026-04-30 20:08 | 51.38391 | -2.73079 | 618 ft | 11 kts | 266° |
| 2026-04-30 20:08 | 51.38388 | -2.73164 | 608 ft | 0 kts | 266° |
| 2026-04-30 20:09 | 51.38388 | -2.73165 | 608 ft | 1 kts | 266° |
| 2026-04-30 20:09 | 51.38386 | -2.73216 | 614 ft | 10 kts | 266° |
| 2026-04-30 20:09 | 51.38254 | -2.73342 | 631 ft | 12 kts | 171° |
| 2026-04-30 20:10 | 51.38217 | -2.73192 | 624 ft | 0 kts | 85° |
| 2026-04-30 20:10 | 51.38217 | -2.73191 | 624 ft | 3 kts | 85° |
| 2026-04-30 20:10 | 51.38237 | -2.72746 | 630 ft | 77 kts | 87° |
| 2026-04-30 20:11 | 51.38349 | -2.69946 | 1171 ft | 144 kts | 89° |
| 2026-04-30 20:11 | 51.38446 | -2.68339 | 1889 ft | 145 kts | 92° |
| 2026-04-30 20:11 | 51.38510 | -2.66688 | 2459 ft | 157 kts | 95° |
| 2026-04-30 20:12 | 51.38586 | -2.62704 | 3162 ft | 202 kts | 93° |
| 2026-04-30 20:12 | 51.38632 | -2.60620 | 3540 ft | 217 kts | 92° |
| 2026-04-30 20:12 | 51.38701 | -2.58091 | 4043 ft | 235 kts | 89° |
| 2026-04-30 20:13 | 51.39195 | -2.55684 | 4744 ft | 252 kts | 58° |
| 2026-04-30 20:13 | 51.40625 | -2.53862 | 5259 ft | 280 kts | 21° |
| 2026-04-30 20:13 | 51.42543 | -2.53565 | 5835 ft | 293 kts | 349° |
| 2026-04-30 20:13 | 51.44127 | -2.54582 | 5972 ft | 290 kts | 322° |
| 2026-04-30 20:14 | 51.45072 | -2.56070 | 6003 ft | 287 kts | 304° |
| 2026-04-30 20:14 | 51.46106 | -2.58785 | 6008 ft | 284 kts | 294° |
| 2026-04-30 20:14 | 51.46950 | -2.61642 | 6010 ft | 283 kts | 291° |
| 2026-04-30 20:14 | 51.47775 | -2.64434 | 6009 ft | 285 kts | 293° |
| 2026-04-30 20:15 | 51.48692 | -2.67253 | 6012 ft | 284 kts | 296° |
| 2026-04-30 20:15 | 51.49680 | -2.70004 | 6011 ft | 285 kts | 298° |
| 2026-04-30 20:15 | 51.50624 | -2.72456 | 6012 ft | 285 kts | 300° |
| 2026-04-30 20:15 | 51.51698 | -2.75133 | 6010 ft | 286 kts | 300° |
| 2026-04-30 20:16 | 51.52788 | -2.77800 | 6013 ft | 286 kts | 301° |
| 2026-04-30 20:16 | 51.53604 | -2.79790 | 6015 ft | 286 kts | 301° |
| 2026-04-30 20:16 | 51.54699 | -2.82451 | 6097 ft | 284 kts | 301° |
| 2026-04-30 20:16 | 51.55718 | -2.84929 | 6103 ft | 284 kts | 301° |
| 2026-04-30 20:17 | 51.56761 | -2.87470 | 6110 ft | 284 kts | 301° |
| 2026-04-30 20:17 | 51.57850 | -2.90120 | 6125 ft | 285 kts | 301° |
| 2026-04-30 20:17 | 51.58946 | -2.92796 | 6121 ft | 288 kts | 301° |
| 2026-04-30 20:17 | 51.59787 | -2.94850 | 6126 ft | 288 kts | 301° |
| 2026-04-30 20:18 | 51.60889 | -2.97541 | 6129 ft | 288 kts | 301° |
| 2026-04-30 20:18 | 51.61976 | -3.00203 | 6131 ft | 288 kts | 301° |
| 2026-04-30 20:18 | 51.62544 | -3.01595 | 6131 ft | 289 kts | 301° |
| 2026-04-30 20:18 | 51.63612 | -3.04213 | 6134 ft | 288 kts | 301° |
| 2026-04-30 20:19 | 51.64714 | -3.06926 | 6133 ft | 290 kts | 301° |
| 2026-04-30 20:19 | 51.65813 | -3.09633 | 6124 ft | 289 kts | 301° |
| 2026-04-30 20:19 | 51.66911 | -3.12347 | 6124 ft | 289 kts | 301° |
| 2026-04-30 20:19 | 51.68010 | -3.15064 | 6123 ft | 290 kts | 301° |
| 2026-04-30 20:20 | 51.69112 | -3.17786 | 6117 ft | 290 kts | 301° |
| 2026-04-30 20:20 | 51.70213 | -3.20500 | 6110 ft | 289 kts | 301° |
| 2026-04-30 20:20 | 51.71490 | -3.23006 | 6102 ft | 291 kts | 318° |
| 2026-04-30 20:20 | 51.73055 | -3.24628 | 6099 ft | 292 kts | 337° |
| 2026-04-30 20:21 | 51.75048 | -3.25405 | 6455 ft | 299 kts | 359° |
| 2026-04-30 20:21 | 51.77106 | -3.25141 | 7463 ft | 297 kts | 10° |
| 2026-04-30 20:21 | 51.79117 | -3.24660 | 8326 ft | 300 kts | 10° |
| 2026-04-30 20:21 | 51.81200 | -3.24155 | 9213 ft | 305 kts | 10° |
| 2026-04-30 20:22 | 51.83316 | -3.23642 | 10079 ft | 310 kts | 10° |
| 2026-04-30 20:22 | 51.85476 | -3.23111 | 10717 ft | 322 kts | 10° |
| 2026-04-30 20:22 | 51.87774 | -3.22538 | 10972 ft | 346 kts | 10° |
| 2026-04-30 20:22 | 51.90218 | -3.21933 | 11433 ft | 360 kts | 10° |
| 2026-04-30 20:23 | 51.92719 | -3.21316 | 12141 ft | 367 kts | 10° |
| 2026-04-30 20:23 | 51.95138 | -3.20721 | 12844 ft | 372 kts | 10° |
| 2026-04-30 20:23 | 51.97501 | -3.20144 | 13512 ft | 377 kts | 10° |
| 2026-04-30 20:23 | 52.00105 | -3.19506 | 14196 ft | 382 kts | 11° |
| 2026-04-30 20:24 | 52.02720 | -3.18858 | 14797 ft | 387 kts | 11° |
| 2026-04-30 20:24 | 52.05417 | -3.18418 | 15411 ft | 393 kts | 4° |
| 2026-04-30 20:24 | 52.08169 | -3.18206 | 16075 ft | 397 kts | 5° |
| 2026-04-30 20:24 | 52.10944 | -3.17994 | 16733 ft | 401 kts | 5° |
| 2026-04-30 20:25 | 52.16584 | -3.17572 | 18010 ft | 410 kts | 5° |
| 2026-04-30 20:25 | 52.19447 | -3.17356 | 18622 ft | 414 kts | 5° |
| 2026-04-30 20:26 | 52.25239 | -3.16908 | 19716 ft | 420 kts | 5° |
| 2026-04-30 20:26 | 52.31125 | -3.16451 | 20777 ft | 426 kts | 5° |
| 2026-04-30 20:26 | 52.34100 | -3.16220 | 21304 ft | 430 kts | 5° |
| 2026-04-30 20:27 | 52.40125 | -3.15749 | 22359 ft | 436 kts | 5° |
| 2026-04-30 20:27 | 52.46231 | -3.15274 | 23382 ft | 442 kts | 5° |
| 2026-04-30 20:28 | 52.52428 | -3.14799 | 24235 ft | 449 kts | 5° |
| 2026-04-30 20:28 | 52.58698 | -3.14302 | 25091 ft | 453 kts | 4° |
| 2026-04-30 20:29 | 52.65032 | -3.13804 | 25960 ft | 456 kts | 4° |
| 2026-04-30 20:30 | 52.74326 | -3.11266 | 26162 ft | 449 kts | 25° |
| 2026-04-30 20:30 | 52.82781 | -3.04709 | 26851 ft | 453 kts | 28° |
| 2026-04-30 20:31 | 52.91414 | -2.98234 | 27173 ft | 455 kts | 23° |
| 2026-04-30 20:32 | 53.00356 | -2.92778 | 27618 ft | 460 kts | 23° |
| 2026-04-30 20:32 | 53.06141 | -2.89229 | 28141 ft | 462 kts | 23° |
| 2026-04-30 20:33 | 53.09116 | -2.87401 | 28166 ft | 451 kts | 23° |
| 2026-04-30 20:33 | 53.14944 | -2.83814 | 28163 ft | 445 kts | 23° |
| 2026-04-30 20:34 | 53.23528 | -2.78471 | 28187 ft | 444 kts | 23° |
| 2026-04-30 20:35 | 53.32177 | -2.73080 | 28202 ft | 445 kts | 23° |
| 2026-04-30 20:35 | 53.40426 | -2.67932 | 28195 ft | 445 kts | 23° |
| 2026-04-30 20:36 | 53.46215 | -2.64294 | 28191 ft | 444 kts | 23° |
| 2026-04-30 20:37 | 53.54686 | -2.58959 | 28191 ft | 444 kts | 23° |
| 2026-04-30 20:37 | 53.60474 | -2.55297 | 28171 ft | 444 kts | 24° |
| 2026-04-30 20:38 | 53.66222 | -2.51654 | 28179 ft | 444 kts | 24° |
| 2026-04-30 20:38 | 53.71881 | -2.48056 | 28188 ft | 444 kts | 24° |
| 2026-04-30 20:39 | 53.80552 | -2.42523 | 28195 ft | 445 kts | 24° |
| 2026-04-30 20:40 | 53.89256 | -2.36929 | 28210 ft | 446 kts | 24° |
| 2026-04-30 20:40 | 53.95075 | -2.33234 | 28215 ft | 448 kts | 20° |
| 2026-04-30 20:41 | 54.01261 | -2.31913 | 28215 ft | 452 kts | 357° |
| 2026-04-30 20:41 | 54.04365 | -2.32686 | 28218 ft | 451 kts | 345° |
| 2026-04-30 20:41 | 54.07335 | -2.34405 | 28218 ft | 450 kts | 334° |
| 2026-04-30 20:41 | 54.10094 | -2.36883 | 28214 ft | 449 kts | 329° |
| 2026-04-30 20:42 | 54.15530 | -2.42013 | 28220 ft | 449 kts | 329° |
| 2026-04-30 20:43 | 54.23734 | -2.49715 | 28230 ft | 449 kts | 329° |
| 2026-04-30 20:43 | 54.29218 | -2.54897 | 28237 ft | 449 kts | 329° |
| 2026-04-30 20:44 | 54.37399 | -2.62690 | 28216 ft | 449 kts | 329° |
| 2026-04-30 20:45 | 54.48302 | -2.73087 | 28243 ft | 448 kts | 328° |
| 2026-04-30 20:45 | 54.53760 | -2.78319 | 28249 ft | 449 kts | 328° |
| 2026-04-30 20:46 | 54.64661 | -2.88826 | 28233 ft | 449 kts | 328° |
| 2026-04-30 20:47 | 54.72820 | -2.96728 | 27904 ft | 446 kts | 328° |
| 2026-04-30 20:48 | 54.78156 | -3.01925 | 27112 ft | 438 kts | 328° |
| 2026-04-30 20:48 | 54.80805 | -3.04510 | 26551 ft | 435 kts | 328° |
| 2026-04-30 20:48 | 54.83437 | -3.07076 | 26020 ft | 433 kts | 328° |
| 2026-04-30 20:48 | 54.86060 | -3.09637 | 25631 ft | 432 kts | 328° |
| 2026-04-30 20:49 | 54.88674 | -3.12190 | 25215 ft | 430 kts | 328° |
| 2026-04-30 20:49 | 54.91274 | -3.14729 | 24800 ft | 428 kts | 328° |
| 2026-04-30 20:49 | 54.93867 | -3.17272 | 24383 ft | 426 kts | 328° |
| 2026-04-30 20:50 | 54.99001 | -3.22339 | 23523 ft | 421 kts | 327° |
| 2026-04-30 20:50 | 55.01537 | -3.24847 | 23118 ft | 417 kts | 327° |
| 2026-04-30 20:50 | 55.04060 | -3.27344 | 22726 ft | 415 kts | 327° |
| 2026-04-30 20:50 | 55.06560 | -3.29824 | 22309 ft | 414 kts | 328° |
| 2026-04-30 20:51 | 55.09026 | -3.32265 | 21916 ft | 413 kts | 328° |
| 2026-04-30 20:51 | 55.13987 | -3.37180 | 21115 ft | 408 kts | 328° |
| 2026-04-30 20:51 | 55.16439 | -3.39629 | 20722 ft | 405 kts | 328° |
| 2026-04-30 20:52 | 55.18885 | -3.42075 | 20334 ft | 402 kts | 328° |
| 2026-04-30 20:52 | 55.21312 | -3.44503 | 19749 ft | 404 kts | 328° |
| 2026-04-30 20:52 | 55.26271 | -3.49462 | 18299 ft | 415 kts | 328° |
| 2026-04-30 20:53 | 55.28756 | -3.51952 | 17881 ft | 409 kts | 328° |
| 2026-04-30 20:53 | 55.31227 | -3.54423 | 17337 ft | 406 kts | 328° |
| 2026-04-30 20:53 | 55.33670 | -3.56867 | 16848 ft | 403 kts | 328° |
| 2026-04-30 20:54 | 55.38483 | -3.61709 | 15559 ft | 393 kts | 328° |
| 2026-04-30 20:54 | 55.40838 | -3.64088 | 14715 ft | 388 kts | 328° |
| 2026-04-30 20:54 | 55.43166 | -3.66440 | 13856 ft | 383 kts | 328° |
| 2026-04-30 20:55 | 55.47719 | -3.71053 | 12060 ft | 372 kts | 328° |
| 2026-04-30 20:55 | 55.49886 | -3.73253 | 11731 ft | 352 kts | 328° |
| 2026-04-30 20:55 | 55.51959 | -3.75361 | 11491 ft | 331 kts | 328° |
| 2026-04-30 20:56 | 55.55872 | -3.79353 | 10752 ft | 326 kts | 328° |
| 2026-04-30 20:56 | 55.57812 | -3.81335 | 10371 ft | 319 kts | 328° |
| 2026-04-30 20:56 | 55.61624 | -3.85231 | 9043 ft | 313 kts | 328° |
| 2026-04-30 20:57 | 55.63498 | -3.87156 | 8418 ft | 309 kts | 328° |
| 2026-04-30 20:57 | 55.65339 | -3.89048 | 7802 ft | 304 kts | 328° |
| 2026-04-30 20:57 | 55.67123 | -3.90875 | 7534 ft | 287 kts | 329° |
| 2026-04-30 20:58 | 55.69952 | -3.95313 | 6934 ft | 268 kts | 301° |
| 2026-04-30 20:58 | 55.70811 | -3.98159 | 6806 ft | 261 kts | 289° |
| 2026-04-30 20:58 | 55.71388 | -4.01201 | 6701 ft | 259 kts | 285° |
| 2026-04-30 20:58 | 55.71951 | -4.04237 | 6608 ft | 261 kts | 285° |
| 2026-04-30 20:59 | 55.73087 | -4.10309 | 6170 ft | 258 kts | 285° |
| 2026-04-30 20:59 | 55.73650 | -4.13323 | 6022 ft | 257 kts | 285° |
| 2026-04-30 21:00 | 55.74760 | -4.19313 | 5711 ft | 255 kts | 285° |
| 2026-04-30 21:00 | 55.75848 | -4.25248 | 5417 ft | 252 kts | 284° |
| 2026-04-30 21:01 | 55.76639 | -4.29560 | 5194 ft | 251 kts | 284° |
| 2026-04-30 21:01 | 55.77318 | -4.33264 | 5006 ft | 250 kts | 284° |
| 2026-04-30 21:01 | 55.78367 | -4.39025 | 4696 ft | 248 kts | 284° |
| 2026-04-30 21:02 | 55.78897 | -4.41938 | 4549 ft | 248 kts | 285° |
| 2026-04-30 21:02 | 55.79248 | -4.43869 | 4427 ft | 248 kts | 284° |
| 2026-04-30 21:02 | 55.79411 | -4.47742 | 4085 ft | 236 kts | 251° |
| 2026-04-30 21:02 | 55.78661 | -4.50275 | 3989 ft | 232 kts | 224° |
| 2026-04-30 21:03 | 55.77376 | -4.51908 | 3865 ft | 227 kts | 199° |
| 2026-04-30 21:03 | 55.75879 | -4.52826 | 3729 ft | 228 kts | 198° |
| 2026-04-30 21:03 | 55.74902 | -4.53520 | 3634 ft | 229 kts | 200° |
| 2026-04-30 21:03 | 55.73437 | -4.54639 | 3499 ft | 229 kts | 201° |
| 2026-04-30 21:04 | 55.71982 | -4.55770 | 3357 ft | 227 kts | 200° |
| 2026-04-30 21:04 | 55.70576 | -4.56857 | 3262 ft | 214 kts | 200° |
| 2026-04-30 21:04 | 55.68031 | -4.59189 | 3155 ft | 206 kts | 219° |
| 2026-04-30 21:05 | 55.67153 | -4.61215 | 3106 ft | 211 kts | 239° |
| 2026-04-30 21:05 | 55.66743 | -4.63744 | 3056 ft | 218 kts | 262° |
| 2026-04-30 21:05 | 55.66909 | -4.66434 | 2993 ft | 225 kts | 285° |
| 2026-04-30 21:05 | 55.67682 | -4.68864 | 2941 ft | 230 kts | 310° |
| 2026-04-30 21:06 | 55.68966 | -4.70571 | 2887 ft | 233 kts | 336° |
| 2026-04-30 21:06 | 55.70532 | -4.71198 | 2835 ft | 231 kts | 3° |
| 2026-04-30 21:06 | 55.72077 | -4.70648 | 2791 ft | 225 kts | 29° |
| 2026-04-30 21:06 | 55.73330 | -4.69072 | 2754 ft | 219 kts | 51° |
| 2026-04-30 21:07 | 55.74376 | -4.67129 | 2722 ft | 214 kts | 51° |
| 2026-04-30 21:07 | 55.75388 | -4.65266 | 2663 ft | 205 kts | 51° |
| 2026-04-30 21:07 | 55.76346 | -4.63493 | 2583 ft | 199 kts | 51° |
| 2026-04-30 21:07 | 55.77296 | -4.61733 | 2525 ft | 196 kts | 51° |
| 2026-04-30 21:08 | 55.78238 | -4.59986 | 2356 ft | 195 kts | 51° |
| 2026-04-30 21:08 | 55.79176 | -4.58250 | 2113 ft | 195 kts | 51° |
| 2026-04-30 21:08 | 55.80118 | -4.56500 | 1852 ft | 196 kts | 50° |
| 2026-04-30 21:08 | 55.81035 | -4.54799 | 1615 ft | 185 kts | 50° |
| 2026-04-30 21:09 | 55.81889 | -4.53213 | 1355 ft | 173 kts | 49° |
| 2026-04-30 21:09 | 55.82688 | -4.51725 | 1129 ft | 160 kts | 48° |
| 2026-04-30 21:09 | 55.83426 | -4.50352 | 929 ft | 146 kts | 48° |
| 2026-04-30 21:09 | 55.84093 | -4.49111 | 722 ft | 134 kts | 47° |
| 2026-04-30 21:10 | 55.84721 | -4.47943 | 541 ft | 127 kts | 48° |
| 2026-04-30 21:10 | 55.85328 | -4.46809 | 368 ft | 126 kts | 48° |
| 2026-04-30 21:10 | 55.85933 | -4.45681 | 207 ft | 125 kts | 49° |
| 2026-04-30 21:10 | 55.86534 | -4.44561 | 42 ft | 125 kts | 48° |
| 2026-04-30 21:11 | 55.87078 | -4.43543 | 29 ft | 101 kts | 46° |
| 2026-04-30 21:11 | 55.87471 | -4.42808 | 29 ft | 47 kts | 46° |
| 2026-04-30 21:11 | 55.87582 | -4.42600 | 29 ft | 19 kts | 46° |
| 2026-04-30 21:11 | 55.87674 | -4.42428 | 29 ft | 20 kts | 47° |
| 2026-04-30 21:12 | 55.87753 | -4.42259 | 29 ft | 13 kts | 84° |
| 2026-04-30 21:12 | 55.87686 | -4.42144 | 29 ft | 14 kts | 166° |
| 2026-04-30 21:12 | 55.87670 | -4.42143 | 29 ft | 0 kts | 181° |
| 2026-04-30 21:13 | 55.87652 | -4.42147 | 29 ft | 7 kts | 190° |
| 2026-04-30 21:13 | 55.87585 | -4.42220 | 29 ft | 13 kts | 227° |
| 2026-04-30 21:13 | 55.87525 | -4.42340 | 29 ft | 13 kts | 228° |
| 2026-04-30 21:13 | 55.87466 | -4.42449 | 29 ft | 12 kts | 226° |
| 2026-04-30 21:14 | 55.87411 | -4.42550 | 29 ft | 11 kts | 225° |
| 2026-04-30 21:14 | 55.87349 | -4.42623 | 29 ft | 11 kts | 203° |
| 2026-04-30 21:14 | 55.87241 | -4.42688 | 29 ft | 19 kts | 198° |
| 2026-04-30 21:14 | 55.87120 | -4.42773 | 29 ft | 18 kts | 200° |
| 2026-04-30 21:15 | 55.87011 | -4.42843 | 29 ft | 16 kts | 200° |
| 2026-04-30 21:15 | 55.86913 | -4.42927 | 29 ft | 15 kts | 207° |
| 2026-04-30 21:15 | 55.86831 | -4.42997 | 29 ft | 12 kts | 192° |
| 2026-04-30 21:15 | 55.86754 | -4.42975 | 29 ft | 11 kts | 162° |
| 2026-04-30 21:16 | 55.86687 | -4.42939 | 29 ft | 9 kts | 163° |
| 2026-04-30 21:16 | 55.86641 | -4.42964 | 29 ft | 7 kts | 240° |
| 2026-04-30 21:16 | 55.86635 | -4.42996 | 29 ft | 0 kts | 250° |
| 2026-04-30 21:16 | 55.86633 | -4.43008 | 29 ft | 1 kts | 251° |
| 2026-04-30 21:17 | 55.86632 | -4.43010 | 29 ft | 0 kts | 251° |